Terminal Aerodrome Forecast
Issued by NWS

Home | Current Version | Previous Version | Text Only | Print | Product List | Glossary On
Versions: 1 2 3 4 5 6 7 8 9 10 11 12 13 14 15 16 17
000
FTUS42 KTBW 010200 AAA
TAFRSW
TAF AMD
KRSW 010258Z 0103/0124 06009KT P6SM VCSH SCT020 OVC050
      TEMPO 0103/0105 BKN010 OVC030
     FM010900 07005KT 5SM BR SCT015 BKN100
     FM011400 10006KT P6SM SCT030 BKN200
     FM011800 12007KT P6SM VCSH SCT040 BKN200=

USA.gov is the U.S. government's official web portal to all federal, state and local government web resources and services.